Time;durP1;ratioP1;P1;durP2;ratioP2;P2;SDS_P1;SDS_P2;PMS_P1;PMS_P2;Temp;Humidity;BMP_temperature;BMP_pressure;BME280_temperature;BME280_humidity;BME280_pressure;Samples;Min_cycle;Max_cycle;Signal;HPM_P1;HPM_P2
2023/07/19 00:00:24;;;;;;;0.13;0.10;;;14.80;99.90;;;;;;5004007;28;20049;-72
2023/07/19 00:02:50;;;;;;;0.00;0.00;;;14.80;99.90;;;;;;5004022;28;20088;-72
2023/07/19 00:05:15;;;;;;;0.52;0.35;;;14.80;99.90;;;;;;5003659;28;20104;-71
2023/07/19 00:07:41;;;;;;;0.30;0.30;;;14.70;99.90;;;;;;5003852;28;20480;-72
2023/07/19 00:10:07;;;;;;;0.00;0.00;;;14.70;99.90;;;;;;5003970;28;20072;-72
2023/07/19 00:12:33;;;;;;;0.00;0.00;;;14.70;99.90;;;;;;5003675;28;20081;-71
2023/07/19 00:14:58;;;;;;;0.17;0.13;;;14.70;99.90;;;;;;5003494;28;20049;-72
2023/07/19 00:17:25;;;;;;;0.52;0.32;;;14.80;99.90;;;;;;5003501;28;20048;-72
2023/07/19 00:19:51;;;;;;;1.02;0.30;;;14.80;99.90;;;;;;5003507;28;20517;-71
2023/07/19 00:22:16;;;;;;;0.22;0.22;;;14.70;99.90;;;;;;5003327;28;20061;-71
2023/07/19 00:24:42;;;;;;;0.30;0.20;;;14.70;99.90;;;;;;5002742;28;20563;-72
2023/07/19 00:27:07;;;;;;;0.00;0.00;;;14.70;99.90;;;;;;5003433;28;20038;-72
2023/07/19 00:29:33;;;;;;;0.00;0.00;;;14.70;99.90;;;;;;5003423;28;20054;-72
2023/07/19 00:31:59;;;;;;;0.77;0.60;;;14.60;99.90;;;;;;5003370;28;20041;-71
2023/07/19 00:34:24;;;;;;;0.03;0.03;;;14.60;99.90;;;;;;5003296;28;20046;-72
2023/07/19 00:36:50;;;;;;;0.00;0.00;;;14.60;99.90;;;;;;5002930;28;20132;-72
2023/07/19 00:39:15;;;;;;;0.25;0.22;;;14.60;99.90;;;;;;5003168;28;20053;-72
2023/07/19 00:41:41;;;;;;;0.65;0.40;;;14.50;99.90;;;;;;5003389;28;20482;-72
2023/07/19 00:44:07;;;;;;;0.20;0.17;;;14.50;99.90;;;;;;5002902;28;20053;-72
2023/07/19 00:46:33;;;;;;;7.93;0.25;;;14.50;99.90;;;;;;5003119;28;20132;-72
2023/07/19 00:48:59;;;;;;;0.90;0.60;;;14.50;99.90;;;;;;5002890;28;20042;-71
2023/07/19 00:51:25;;;;;;;0.52;0.38;;;14.50;99.90;;;;;;5002727;28;20072;-71
2023/07/19 00:53:52;;;;;;;1.08;0.73;;;14.50;99.90;;;;;;5002421;28;20133;-72
2023/07/19 00:56:19;;;;;;;0.60;0.47;;;14.50;99.90;;;;;;5002826;28;20416;-72
2023/07/19 00:58:46;;;;;;;0.00;0.00;;;14.50;99.90;;;;;;5002892;28;20152;-72
2023/07/19 01:01:12;;;;;;;0.10;0.10;;;14.50;99.90;;;;;;5002924;28;20046;-72
2023/07/19 01:03:37;;;;;;;0.00;0.00;;;14.60;99.90;;;;;;5002125;28;20109;-72
2023/07/19 01:06:06;;;;;;;0.00;0.00;;;14.50;99.90;;;;;;5002872;28;20042;-72
2023/07/19 01:08:32;;;;;;;0.52;0.32;;;14.60;99.90;;;;;;5002772;28;20382;-72
2023/07/19 01:10:59;;;;;;;0.00;0.00;;;14.60;99.90;;;;;;5002817;28;20053;-72
2023/07/19 01:13:24;;;;;;;0.10;0.10;;;14.50;99.90;;;;;;5002203;28;20050;-71
2023/07/19 01:15:50;;;;;;;1.40;0.47;;;14.50;99.90;;;;;;5002520;28;20064;-71
2023/07/19 01:18:18;;;;;;;0.08;0.05;;;14.50;99.90;;;;;;5002674;28;20416;-71
2023/07/19 01:20:44;;;;;;;0.05;0.05;;;14.50;99.90;;;;;;5001256;28;20056;-72
2023/07/19 01:23:09;;;;;;;0.00;0.00;;;14.50;99.90;;;;;;5002660;28;20132;-72
2023/07/19 01:25:35;;;;;;;0.20;0.10;;;14.50;99.90;;;;;;5002468;28;20038;-71
2023/07/19 01:28:01;;;;;;;0.10;0.10;;;14.50;99.90;;;;;;5002398;28;20041;-72
2023/07/19 01:30:26;;;;;;;0.35;0.32;;;14.60;99.90;;;;;;5017514;28;20132;-71
2023/07/19 01:32:52;;;;;;;0.32;0.30;;;14.60;99.90;;;;;;5002119;28;20046;-72
2023/07/19 01:35:17;;;;;;;0.75;0.20;;;14.60;99.90;;;;;;5002132;28;20042;-72
2023/07/19 01:37:43;;;;;;;0.40;0.10;;;14.60;99.90;;;;;;5002421;28;20041;-71
2023/07/19 01:40:12;;;;;;;0.08;0.08;;;14.70;99.90;;;;;;5001745;28;20328;-72
2023/07/19 01:42:39;;;;;;;0.45;0.38;;;14.70;99.90;;;;;;5002137;28;20418;-72
2023/07/19 01:45:05;;;;;;;3.10;1.13;;;14.70;99.90;;;;;;5002232;28;20053;-72
2023/07/19 01:47:30;;;;;;;0.75;0.32;;;14.60;99.90;;;;;;5001701;28;20849;-72
2023/07/19 01:49:56;;;;;;;0.10;0.10;;;14.50;99.90;;;;;;5002216;28;20046;-72
2023/07/19 01:52:22;;;;;;;0.28;0.20;;;14.60;99.90;;;;;;5002125;28;20053;-72
2023/07/19 01:54:48;;;;;;;0.00;0.00;;;14.60;99.90;;;;;;5002023;28;20038;-72
2023/07/19 01:57:13;;;;;;;0.05;0.05;;;14.50;99.90;;;;;;5000182;28;20034;-72
2023/07/19 01:59:39;;;;;;;0.00;0.00;;;14.50;99.90;;;;;;5001575;28;20092;-72
2023/07/19 02:02:05;;;;;;;0.28;0.28;;;14.50;99.90;;;;;;5001835;28;20041;-72
2023/07/19 02:04:30;;;;;;;0.28;0.28;;;14.50;99.90;;;;;;5001751;28;20058;-72
2023/07/19 02:06:56;;;;;;;0.10;0.10;;;14.50;99.90;;;;;;5002102;28;20045;-72
2023/07/19 02:09:22;;;;;;;0.10;0.05;;;14.50;99.90;;;;;;5001971;28;20045;-72
2023/07/19 02:11:48;;;;;;;0.22;0.17;;;14.50;99.90;;;;;;5002340;28;20041;-72
2023/07/19 02:14:14;;;;;;;0.08;0.03;;;14.50;99.90;;;;;;5001890;28;20045;-72
2023/07/19 02:16:40;;;;;;;0.00;0.00;;;14.50;99.90;;;;;;5001831;28;20128;-72
2023/07/19 02:19:06;;;;;;;0.10;0.10;;;14.50;99.90;;;;;;5001955;28;20144;-72
2023/07/19 02:21:32;;;;;;;1.98;0.50;;;14.50;99.90;;;;;;5001477;28;20508;-72
2023/07/19 02:23:58;;;;;;;0.30;0.30;;;14.50;99.90;;;;;;5001846;28;20088;-72
2023/07/19 02:26:24;;;;;;;1.33;0.28;;;14.50;99.90;;;;;;5000398;28;20058;-72
2023/07/19 02:28:50;;;;;;;0.30;0.30;;;14.50;99.90;;;;;;5002065;28;20042;-72
2023/07/19 02:31:16;;;;;;;0.82;0.50;;;14.60;99.90;;;;;;5001706;28;20637;-72
2023/07/19 02:33:41;;;;;;;0.25;0.08;;;14.60;99.90;;;;;;5001240;28;20034;-71
2023/07/19 02:36:11;;;;;;;0.10;0.10;;;14.50;99.90;;;;;;5001839;28;20042;-72
2023/07/19 02:38:37;;;;;;;0.55;0.45;;;14.50;99.90;;;;;;5001669;28;20116;-72
2023/07/19 02:41:02;;;;;;;0.43;0.30;;;15.00;99.90;;;;;;5001510;28;20480;-72
2023/07/19 02:43:28;;;;;;;0.13;0.13;;;14.60;99.90;;;;;;5001203;28;20092;-72
2023/07/19 02:45:54;;;;;;;0.00;0.00;;;14.60;99.90;;;;;;5001443;28;20424;-72
2023/07/19 02:48:21;;;;;;;0.93;0.45;;;14.50;99.90;;;;;;5000862;28;20046;-72
2023/07/19 02:50:47;;;;;;;0.35;0.35;;;14.50;99.90;;;;;;5001606;28;20134;-72
2023/07/19 02:53:14;;;;;;;0.32;0.28;;;14.50;99.90;;;;;;5001483;28;20408;-72
2023/07/19 02:55:42;;;;;;;0.30;0.22;;;14.50;99.90;;;;;;5001535;28;20042;-72
2023/07/19 02:58:07;;;;;;;0.47;0.40;;;14.50;99.90;;;;;;5001338;28;20092;-72
2023/07/19 03:00:33;;;;;;;0.00;0.00;;;14.40;99.90;;;;;;5004635;28;20104;-72
2023/07/19 03:02:58;;;;;;;1.95;1.20;;;14.50;99.90;;;;;;5005016;28;20605;-72
2023/07/19 03:05:24;;;;;;;0.20;0.20;;;14.50;99.90;;;;;;5005107;28;20699;-72
2023/07/19 03:07:51;;;;;;;0.00;0.00;;;14.50;99.90;;;;;;5005053;28;20129;-72
2023/07/19 03:10:17;;;;;;;0.90;0.38;;;14.50;99.90;;;;;;5003860;28;20060;-72
2023/07/19 03:12:43;;;;;;;0.00;0.00;;;14.50;99.90;;;;;;5005063;28;20045;-72
2023/07/19 03:15:09;;;;;;;0.00;0.00;;;14.50;99.90;;;;;;5004965;28;20512;-71
2023/07/19 03:17:34;;;;;;;0.05;0.05;;;14.40;99.90;;;;;;5004802;28;20087;-72
2023/07/19 03:20:00;;;;;;;0.13;0.10;;;14.30;99.90;;;;;;5005016;28;20046;-72
2023/07/19 03:22:26;;;;;;;0.30;0.13;;;14.30;99.90;;;;;;5004884;28;20096;-72
2023/07/19 03:24:51;;;;;;;0.10;0.10;;;14.30;99.90;;;;;;5004537;28;20452;-72
2023/07/19 03:27:17;;;;;;;0.10;0.10;;;14.30;99.90;;;;;;5004281;28;20084;-72
2023/07/19 03:29:43;;;;;;;0.13;0.08;;;14.20;99.90;;;;;;5003695;28;20048;-72
2023/07/19 03:32:08;;;;;;;0.25;0.25;;;14.20;99.90;;;;;;5004356;28;20100;-72
2023/07/19 03:34:34;;;;;;;0.98;0.35;;;14.20;99.90;;;;;;5004343;28;20499;-72
2023/07/19 03:37:00;;;;;;;0.20;0.17;;;14.20;99.90;;;;;;5003624;28;20531;-72
2023/07/19 03:39:25;;;;;;;0.10;0.10;;;14.20;99.90;;;;;;5004109;28;20096;-71
2023/07/19 03:41:51;;;;;;;0.20;0.20;;;14.30;99.90;;;;;;5003883;28;20058;-72
2023/07/19 03:44:17;;;;;;;0.25;0.25;;;14.30;99.90;;;;;;5004147;28;20501;-72
2023/07/19 03:46:43;;;;;;;1.00;0.32;;;14.30;99.90;;;;;;5003872;28;20046;-72
2023/07/19 03:49:08;;;;;;;0.32;0.32;;;14.30;99.90;;;;;;5004401;28;20390;-72
2023/07/19 03:51:35;;;;;;;3.00;0.10;;;14.40;99.90;;;;;;5004370;28;20234;-72
2023/07/19 03:54:00;;;;;;;0.98;0.25;;;14.40;99.90;;;;;;5004110;28;20144;-72
2023/07/19 03:56:26;;;;;;;0.45;0.38;;;14.40;99.90;;;;;;5004619;28;20959;-72
2023/07/19 03:58:52;;;;;;;0.10;0.03;;;14.40;99.90;;;;;;5004137;28;20046;-72
2023/07/19 04:01:17;;;;;;;0.40;0.32;;;14.50;99.90;;;;;;5003876;28;20050;-72
2023/07/19 04:03:43;;;;;;;0.43;0.25;;;14.50;99.90;;;;;;5004121;28;20081;-72
2023/07/19 04:06:09;;;;;;;0.22;0.15;;;14.60;99.90;;;;;;5004100;28;20466;-72
2023/07/19 04:08:35;;;;;;;0.17;0.17;;;14.60;99.90;;;;;;5003499;28;20050;-72
2023/07/19 04:11:01;;;;;;;0.22;0.22;;;14.70;99.90;;;;;;5003308;28;20438;-72
2023/07/19 04:13:27;;;;;;;0.65;0.35;;;14.70;99.90;;;;;;5003638;28;20050;-72
2023/07/19 04:15:53;;;;;;;0.00;0.00;;;14.80;99.90;;;;;;5003222;28;20081;-72
2023/07/19 04:18:19;;;;;;;1.10;0.57;;;14.80;99.90;;;;;;5003810;28;20128;-72
2023/07/19 04:20:45;;;;;;;1.40;1.02;;;14.80;99.90;;;;;;5004120;28;20127;-72
2023/07/19 04:23:11;;;;;;;25.10;1.20;;;14.90;99.90;;;;;;5003709;28;20126;-72
2023/07/19 04:25:37;;;;;;;0.30;0.28;;;14.90;99.90;;;;;;5003885;28;20567;-72
2023/07/19 04:28:03;;;;;;;0.38;0.30;;;15.00;99.90;;;;;;5003387;28;20179;-72
2023/07/19 04:30:28;;;;;;;0.52;0.43;;;15.10;99.90;;;;;;5003340;28;20048;-72
2023/07/19 04:32:55;;;;;;;0.10;0.10;;;15.10;99.90;;;;;;5004058;28;20084;-72
2023/07/19 04:35:24;;;;;;;0.15;0.10;;;15.20;99.90;;;;;;5003680;28;20176;-72
2023/07/19 04:37:50;;;;;;;1.05;0.43;;;15.20;99.90;;;;;;5003638;28;20060;-72
2023/07/19 04:40:16;;;;;;;0.65;0.57;;;15.30;99.90;;;;;;5004018;28;20129;-72
2023/07/19 04:42:42;;;;;;;1.10;0.90;;;15.30;99.90;;;;;;5003437;28;20275;-72
2023/07/19 04:45:08;;;;;;;0.05;0.03;;;15.40;99.90;;;;;;5003097;28;20045;-72
2023/07/19 04:47:36;;;;;;;0.75;0.57;;;15.50;99.90;;;;;;5003074;28;20099;-72
2023/07/19 04:50:02;;;;;;;0.77;0.70;;;15.50;99.90;;;;;;5003396;28;20069;-72
2023/07/19 04:52:27;;;;;;;0.20;0.20;;;15.60;99.90;;;;;;5003328;28;20038;-72
2023/07/19 04:54:53;;;;;;;0.20;0.20;;;15.60;99.90;;;;;;5003558;28;20050;-72
2023/07/19 04:57:19;;;;;;;2.17;0.68;;;15.70;99.90;;;;;;5002991;28;20046;-72
2023/07/19 04:59:45;;;;;;;0.22;0.22;;;15.80;99.90;;;;;;5003355;28;20053;-72
2023/07/19 05:02:10;;;;;;;0.75;0.73;;;15.90;99.90;;;;;;5002876;28;20452;-72
2023/07/19 05:04:36;;;;;;;2.60;0.40;;;16.10;99.90;;;;;;5003145;28;20089;-72
2023/07/19 05:07:01;;;;;;;0.20;0.20;;;16.10;99.90;;;;;;5002731;28;20103;-72
2023/07/19 05:09:28;;;;;;;0.90;0.43;;;16.20;99.90;;;;;;5002923;28;20072;-72
2023/07/19 05:11:53;;;;;;;0.30;0.20;;;16.30;99.90;;;;;;5002561;28;20089;-72
2023/07/19 05:14:19;;;;;;;0.80;0.63;;;16.50;99.90;;;;;;5002613;28;20077;-72
2023/07/19 05:16:44;;;;;;;0.85;0.65;;;16.40;99.90;;;;;;5002505;28;20497;-72
2023/07/19 05:19:11;;;;;;;0.65;0.35;;;16.50;99.90;;;;;;5002322;28;20057;-72
2023/07/19 05:21:36;;;;;;;0.45;0.45;;;16.60;99.90;;;;;;5001845;28;20483;-72
2023/07/19 05:24:02;;;;;;;0.43;0.43;;;16.60;99.70;;;;;;5002443;28;20053;-72
2023/07/19 05:26:28;;;;;;;1.85;0.95;;;16.80;47.80;;;;;;5002114;28;20074;-72
2023/07/19 05:28:53;;;;;;;1.17;0.15;;;16.90;1.00;;;;;;5002351;28;20053;-72
2023/07/19 05:31:19;;;;;;;3.50;2.03;;;17.00;1.00;;;;;;5002584;28;20045;-72
2023/07/19 05:33:45;;;;;;;0.80;0.73;;;17.10;99.90;;;;;;5002223;28;20057;-72
2023/07/19 05:36:11;;;;;;;0.50;0.50;;;17.20;99.90;;;;;;5002626;28;20559;-72
2023/07/19 05:38:36;;;;;;;0.30;0.30;;;17.20;99.90;;;;;;5002445;28;20081;-72
2023/07/19 05:41:03;;;;;;;0.10;0.10;;;17.20;99.90;;;;;;5002072;28;20575;-72
2023/07/19 05:43:29;;;;;;;0.80;0.20;;;17.20;72.70;;;;;;5002329;28;20085;-72
2023/07/19 05:46:21;;;;;;;0.00;0.00;;;17.10;47.50;;;;;;5002112;28;20084;-71
2023/07/19 05:48:47;;;;;;;0.63;0.50;;;17.10;1.00;;;;;;4999973;28;20054;-71
2023/07/19 05:51:13;;;;;;;0.52;0.52;;;17.10;1.00;;;;;;5002120;28;20052;-71
2023/07/19 05:53:38;;;;;;;0.50;0.30;;;17.00;63.30;;;;;;5001651;28;20149;-72
2023/07/19 05:56:04;;;;;;;1.38;0.80;;;17.10;1.00;;;;;;5002204;28;20116;-71
2023/07/19 05:58:30;;;;;;;0.43;0.43;;;17.20;1.00;;;;;;5001526;28;20598;-72
2023/07/19 06:00:56;;;;;;;0.38;0.35;;;17.20;1.00;;;;;;5001684;28;20566;-72
2023/07/19 06:03:22;;;;;;;0.00;0.00;;;17.20;1.00;;;;;;5001755;28;20120;-72
2023/07/19 06:05:47;;;;;;;1.33;0.82;;;17.20;1.00;;;;;;5001562;28;20560;-72
2023/07/19 06:08:13;;;;;;;0.17;0.17;;;17.20;1.00;;;;;;5001074;28;20042;-72
2023/07/19 06:10:39;;;;;;;0.68;0.50;;;17.20;1.00;;;;;;4999639;28;20101;-72
2023/07/19 06:13:05;;;;;;;2.95;0.32;;;17.40;1.00;;;;;;4992380;28;20053;-72
2023/07/19 06:15:34;;;;;;;0.88;0.50;;;17.20;1.90;;;;;;4996081;28;20045;-72
2023/07/19 06:18:00;;;;;;;1.10;0.77;;;17.20;1.00;;;;;;4996453;28;20092;-72
2023/07/19 06:20:27;;;;;;;1.80;0.65;;;17.20;1.00;;;;;;4992062;28;20514;-71
2023/07/19 06:22:52;;;;;;;2.35;0.70;;;17.10;1.00;;;;;;4990118;28;20050;-72
2023/07/19 06:25:18;;;;;;;0.28;0.25;;;17.10;1.00;;;;;;4991868;28;20077;-71
2023/07/19 06:27:44;;;;;;;1.90;0.30;;;17.20;1.00;;;;;;4993066;28;20047;-72
2023/07/19 06:30:10;;;;;;;0.10;0.10;;;17.30;99.90;;;;;;4987886;28;20054;-72
2023/07/19 06:32:36;;;;;;;0.22;0.15;;;17.20;1.00;;;;;;4989747;28;20551;-72
2023/07/19 06:35:03;;;;;;;0.25;0.25;;;17.20;99.90;;;;;;4993137;28;20042;-72
2023/07/19 06:37:28;;;;;;;0.05;0.05;;;17.10;99.90;;;;;;4994768;28;20050;-72
2023/07/19 06:39:54;;;;;;;0.40;0.20;;;16.90;99.90;;;;;;4991487;28;20112;-72
2023/07/19 06:42:20;;;;;;;0.03;0.03;;;17.00;1.00;;;;;;4994550;28;20042;-72
2023/07/19 06:44:45;;;;;;;1.35;0.63;;;16.80;1.00;;;;;;4993038;28;20413;-72
2023/07/19 06:47:11;;;;;;;1.08;0.63;;;16.80;1.00;;;;;;4995296;28;20440;-72
2023/07/19 06:49:37;;;;;;;1.05;0.35;;;16.80;1.00;;;;;;4994993;28;20082;-72
2023/07/19 06:52:04;;;;;;;1.33;0.45;;;17.10;1.00;;;;;;4996589;28;20045;-71
2023/07/19 06:54:29;;;;;;;0.10;0.10;;;16.90;1.00;;;;;;4993365;28;20037;-72
2023/07/19 06:56:55;;;;;;;0.40;0.32;;;17.00;99.90;;;;;;4993760;28;20513;-72
2023/07/19 06:59:21;;;;;;;0.45;0.25;;;17.10;99.90;;;;;;4994702;28;20038;-72
2023/07/19 07:01:46;;;;;;;0.13;0.10;;;17.20;99.90;;;;;;4993059;28;20077;-72
2023/07/19 07:04:13;;;;;;;0.43;0.38;;;17.30;99.90;;;;;;4992912;28;20052;-72
2023/07/19 07:06:38;;;;;;;0.20;0.20;;;17.50;99.90;;;;;;4994812;28;20273;-72
2023/07/19 07:09:04;;;;;;;0.00;0.00;;;17.60;1.00;;;;;;4994694;28;20049;-72
2023/07/19 07:11:30;;;;;;;13.15;1.23;;;17.70;99.90;;;;;;4992942;28;20073;-72
2023/07/19 07:13:55;;;;;;;1.20;0.82;;;17.80;1.00;;;;;;4990305;28;20042;-72
2023/07/19 07:16:21;;;;;;;1.15;0.65;;;17.90;99.90;;;;;;5015992;28;20088;-72
2023/07/19 07:18:46;;;;;;;0.57;0.32;;;18.10;99.90;;;;;;4983370;28;20457;-71
2023/07/19 07:21:12;;;;;;;0.35;0.25;;;18.20;99.90;;;;;;4983664;28;20600;-71
2023/07/19 07:23:38;;;;;;;0.22;0.22;;;18.40;1.00;;;;;;4990554;28;20045;-72
2023/07/19 07:26:03;;;;;;;0.17;0.03;;;18.40;99.90;;;;;;4991952;28;20084;-72
2023/07/19 07:28:29;;;;;;;0.10;0.05;;;18.40;99.90;;;;;;4996814;28;20038;-72
2023/07/19 07:30:54;;;;;;;0.55;0.45;;;18.50;99.90;;;;;;4990605;28;20129;-71
2023/07/19 07:33:20;;;;;;;0.03;0.03;;;18.60;99.90;;;;;;4991534;28;20033;-72
2023/07/19 07:35:46;;;;;;;0.75;0.32;;;18.70;76.30;;;;;;4992028;28;20038;-72
2023/07/19 07:38:12;;;;;;;0.05;0.03;;;18.70;1.00;;;;;;4993459;28;20138;-72
2023/07/19 07:40:37;;;;;;;0.00;0.00;;;18.90;1.00;;;;;;4991822;28;20128;-72
2023/07/19 07:43:03;;;;;;;0.52;0.52;;;18.90;1.00;;;;;;4991635;28;20470;-72
2023/07/19 07:45:29;;;;;;;0.00;0.00;;;19.00;99.90;;;;;;4994297;28;20065;-72
2023/07/19 07:47:54;;;;;;;0.13;0.13;;;19.20;99.90;;;;;;4992703;28;20044;-72
2023/07/19 07:50:22;;;;;;;1.48;1.15;;;19.40;99.90;;;;;;4982708;28;20680;-72
2023/07/19 07:52:48;;;;;;;0.10;0.10;;;19.40;1.00;;;;;;4982749;28;20140;-72
2023/07/19 07:55:14;;;;;;;5.15;0.32;;;19.60;68.40;;;;;;4993712;28;20054;-72
2023/07/19 07:57:39;;;;;;;2.60;0.85;;;19.80;99.90;;;;;;4993992;28;20049;-72
2023/07/19 08:00:06;;;;;;;0.88;0.57;;;20.10;99.90;;;;;;4990992;28;20787;-73
2023/07/19 08:02:32;;;;;;;0.35;0.30;;;20.20;99.90;;;;;;4994404;28;20131;-73
2023/07/19 08:04:58;;;;;;;0.15;0.15;;;20.50;99.90;;;;;;4988619;28;20642;-71
2023/07/19 08:07:25;;;;;;;0.10;0.10;;;20.70;99.90;;;;;;4987641;28;20473;-71
2023/07/19 08:09:52;;;;;;;0.20;0.20;;;20.90;32.90;;;;;;4999928;28;20089;-71
2023/07/19 08:12:20;;;;;;;0.35;0.20;;;21.00;39.10;;;;;;4996848;28;20049;-71
2023/07/19 08:14:46;;;;;;;0.00;0.00;;;21.20;28.30;;;;;;4993915;28;20627;-71
2023/07/19 08:17:12;;;;;;;0.00;0.00;;;21.20;1.00;;;;;;4993720;28;20134;-71
2023/07/19 08:19:38;;;;;;;0.30;0.20;;;21.30;1.00;;;;;;4990400;28;20042;-71
2023/07/19 08:22:05;;;;;;;0.00;0.00;;;21.40;1.00;;;;;;4996247;28;20049;-72
2023/07/19 08:24:31;;;;;;;0.10;0.00;;;21.50;1.00;;;;;;5000283;28;20048;-72
2023/07/19 08:26:58;;;;;;;0.10;0.10;;;21.70;1.00;;;;;;5000576;28;20044;-72
2023/07/19 08:29:23;;;;;;;0.32;0.20;;;21.90;1.00;;;;;;5000693;28;20053;-72
2023/07/19 08:31:49;;;;;;;0.10;0.10;;;21.90;99.90;;;;;;5000240;28;20563;-72
2023/07/19 08:34:15;;;;;;;0.13;0.13;;;21.80;1.00;;;;;;4999606;28;20041;-72
2023/07/19 08:36:40;;;;;;;0.00;0.00;;;21.80;99.90;;;;;;4998074;28;20552;-72
2023/07/19 08:39:06;;;;;;;0.00;0.00;;;22.10;99.90;;;;;;4999387;28;20042;-72
2023/07/19 08:41:32;;;;;;;1.35;0.57;;;22.30;99.90;;;;;;4999688;28;20108;-72
2023/07/19 08:43:58;;;;;;;1.75;0.57;;;22.50;99.90;;;;;;5000326;28;20302;-72
2023/07/19 08:46:24;;;;;;;3.30;0.13;;;23.00;99.90;;;;;;4999829;28;20038;-72
2023/07/19 08:48:50;;;;;;;0.00;0.00;;;23.00;99.90;;;;;;4999935;28;20048;-72
2023/07/19 08:51:17;;;;;;;0.00;0.00;;;22.60;99.90;;;;;;5000423;28;20052;-73
2023/07/19 08:53:44;;;;;;;0.00;0.00;;;21.90;99.90;;;;;;4999632;28;20141;-72
2023/07/19 08:56:10;;;;;;;0.00;0.00;;;21.30;99.90;;;;;;4999048;28;20049;-72
2023/07/19 08:58:39;;;;;;;0.22;0.20;;;20.90;99.90;;;;;;4999555;28;20630;-72
2023/07/19 09:01:05;;;;;;;0.45;0.35;;;20.50;99.90;;;;;;5000237;28;20444;-73
2023/07/19 09:03:31;;;;;;;0.00;0.00;;;20.40;99.90;;;;;;5014530;28;20050;-72
2023/07/19 09:05:56;;;;;;;0.00;0.00;;;20.50;99.90;;;;;;4999822;28;20413;-72
2023/07/19 09:08:42;;;;;;;0.10;0.05;;;20.60;99.90;;;;;;4999106;28;20057;-72
2023/07/19 09:11:08;;;;;;;0.20;0.20;;;20.90;99.90;;;;;;4999583;28;20046;-72
2023/07/19 09:13:36;;;;;;;0.00;0.00;;;21.00;99.90;;;;;;4999109;28;20050;-72
2023/07/19 09:16:03;;;;;;;0.00;0.00;;;21.40;99.90;;;;;;4997816;28;20453;-72
2023/07/19 09:18:34;;;;;;;0.00;0.00;;;21.70;99.90;;;;;;5000337;28;20531;-72
2023/07/19 09:21:00;;;;;;;0.20;0.20;;;21.90;99.90;;;;;;4999683;28;20409;-71
2023/07/19 09:23:26;;;;;;;0.10;0.10;;;22.40;99.90;;;;;;4998611;28;20037;-72
2023/07/19 09:25:54;;;;;;;0.28;0.25;;;23.30;99.90;;;;;;4999097;28;20508;-72
2023/07/19 09:28:23;;;;;;;0.00;0.00;;;24.50;99.90;;;;;;4999290;28;20409;-72
2023/07/19 09:30:58;;;;;;;0.10;0.10;;;25.60;99.90;;;;;;4990682;28;20524;-72
2023/07/19 09:33:26;;;;;;;0.10;0.10;;;26.40;99.90;;;;;;4988662;28;20050;-72
2023/07/19 09:35:58;;;;;;;0.00;0.00;;;27.30;99.90;;;;;;4996414;28;20564;-72
2023/07/19 09:38:25;;;;;;;0.57;0.45;;;27.10;99.90;;;;;;4989659;28;20609;-73
2023/07/19 09:40:53;;;;;;;0.80;0.30;;;27.40;99.90;;;;;;4983930;28;20070;-72
2023/07/19 09:43:19;;;;;;;0.05;0.05;;;27.60;99.90;;;;;;4979699;28;20054;-72
2023/07/19 09:45:47;;;;;;;0.20;0.20;;;27.70;99.90;;;;;;4997771;28;20896;-72
2023/07/19 09:48:16;;;;;;;0.38;0.35;;;27.60;99.90;;;;;;4999964;28;20061;-73
2023/07/19 09:50:43;;;;;;;0.20;0.15;;;28.50;99.90;;;;;;4999771;28;20591;-72
2023/07/19 09:53:12;;;;;;;0.00;0.00;;;29.20;99.90;;;;;;4999563;28;20065;-72
2023/07/19 09:55:39;;;;;;;0.32;0.10;;;28.50;99.90;;;;;;4998248;28;20056;-73
2023/07/19 09:58:11;;;;;;;0.10;0.10;;;27.70;95.70;;;;;;4999703;28;20052;-72
2023/07/19 10:00:38;;;;;;;0.10;0.05;;;27.10;56.60;;;;;;4999488;28;20052;-72
2023/07/19 10:03:08;;;;;;;0.00;0.00;;;26.40;16.30;;;;;;4999143;28;20399;-72
2023/07/19 10:05:34;;;;;;;2.33;0.50;;;25.60;14.80;;;;;;4999531;28;20069;-72
2023/07/19 10:08:05;;;;;;;0.00;0.00;;;24.50;1.00;;;;;;4999111;28;20505;-72
2023/07/19 10:10:41;;;;;;;0.00;0.00;;;23.60;1.00;;;;;;4999525;28;20046;-73
2023/07/19 10:13:07;;;;;;;0.08;0.08;;;22.80;1.00;;;;;;4997343;28;20057;-72
2023/07/19 10:15:34;;;;;;;0.00;0.00;;;22.60;1.00;;;;;;4997460;28;20054;-72
2023/07/19 10:18:00;;;;;;;0.57;0.22;;;22.00;99.90;;;;;;4998196;28;20052;-72
2023/07/19 10:20:33;;;;;;;0.03;0.03;;;21.50;77.90;;;;;;4997966;28;20456;-71
2023/07/19 10:23:05;;;;;;;0.00;0.00;;;21.40;69.00;;;;;;4998002;28;20052;-72
2023/07/19 10:25:36;;;;;;;0.08;0.05;;;21.80;99.90;;;;;;4999337;28;20041;-72
2023/07/19 10:28:10;;;;;;;0.00;0.00;;;22.30;94.50;;;;;;5000238;28;20563;-72
2023/07/19 10:30:59;;;;;;;0.00;0.00;;;22.90;99.20;;;;;;4999805;28;20512;-72
2023/07/19 10:33:26;;;;;;;0.55;0.55;;;23.10;39.90;;;;;;4999855;28;20053;-72
2023/07/19 10:35:55;;;;;;;3.50;0.22;;;23.40;62.40;;;;;;4999889;28;20493;-72
2023/07/19 10:38:25;;;;;;;0.45;0.22;;;23.70;38.20;;;;;;4999734;28;20052;-72
2023/07/19 10:40:57;;;;;;;0.05;0.05;;;23.20;54.30;;;;;;4993719;28;20068;-72
2023/07/19 10:43:24;;;;;;;0.00;0.00;;;22.70;64.60;;;;;;4998985;28;20508;-72
2023/07/19 10:45:52;;;;;;;6.18;1.00;;;22.20;45.40;;;;;;4999258;28;20053;-72
2023/07/19 10:48:20;;;;;;;0.17;0.17;;;21.90;36.70;;;;;;4998914;28;20643;-71
2023/07/19 10:50:46;;;;;;;0.00;0.00;;;21.50;67.30;;;;;;4999249;28;20380;-72
2023/07/19 10:53:14;;;;;;;0.00;0.00;;;21.20;98.40;;;;;;4998890;28;20054;-72
2023/07/19 10:55:40;;;;;;;0.82;0.80;;;21.20;92.90;;;;;;4998216;28;20397;-72
2023/07/19 10:58:06;;;;;;;0.22;0.20;;;21.30;99.90;;;;;;4991199;28;20050;-72
2023/07/19 11:00:35;;;;;;;0.30;0.30;;;21.60;99.90;;;;;;4999174;28;20048;-72
2023/07/19 11:03:00;;;;;;;0.25;0.25;;;22.20;99.90;;;;;;5001412;28;20049;-72
2023/07/19 11:05:26;;;;;;;0.22;0.15;;;22.70;99.90;;;;;;5001770;28;20072;-73
2023/07/19 11:07:52;;;;;;;0.47;0.32;;;23.00;99.90;;;;;;5000131;28;20037;-72
2023/07/19 11:10:18;;;;;;;0.40;0.40;;;23.70;99.90;;;;;;5000080;28;20646;-73
2023/07/19 11:12:44;;;;;;;0.52;0.30;;;24.50;99.90;;;;;;5000123;28;20042;-73
2023/07/19 11:15:10;;;;;;;0.43;0.35;;;24.70;99.90;;;;;;5000245;28;20258;-72
2023/07/19 11:17:37;;;;;;;0.20;0.10;;;24.60;99.90;;;;;;5000398;28;20069;-73
2023/07/19 11:20:04;;;;;;;0.20;0.15;;;24.60;99.90;;;;;;5000836;28;20096;-73
2023/07/19 11:22:30;;;;;;;0.00;0.00;;;24.30;83.40;;;;;;5003622;28;20117;-72
2023/07/19 11:24:56;;;;;;;0.00;0.00;;;24.10;97.10;;;;;;5004655;28;20502;-72
2023/07/19 11:27:34;;;;;;;0.00;0.00;;;23.90;85.60;;;;;;5005672;28;20054;-72
2023/07/19 11:30:00;;;;;;;2.30;1.17;;;23.70;51.00;;;;;;5005005;28;20049;-72
2023/07/19 11:32:26;;;;;;;0.00;0.00;;;23.80;83.50;;;;;;5005279;28;20046;-72
2023/07/19 11:34:58;;;;;;;0.55;0.38;;;23.00;23.30;;;;;;5004667;28;20045;-70
2023/07/19 11:37:32;;;;;;;0.00;0.00;;;22.80;21.10;;;;;;5004787;28;20103;-72
2023/07/19 11:40:02;;;;;;;0.00;0.00;;;22.60;36.50;;;;;;5004805;28;20073;-72
2023/07/19 11:42:48;;;;;;;0.00;0.00;;;22.80;44.10;;;;;;5005118;28;20041;-72
2023/07/19 11:45:21;;;;;;;0.00;0.00;;;24.10;87.00;;;;;;5004599;28;20042;-72
2023/07/19 11:47:54;;;;;;;0.30;0.30;;;25.40;99.90;;;;;;5004626;28;20401;-72
2023/07/19 11:50:23;;;;;;;0.77;0.38;;;25.70;99.90;;;;;;5004771;28;20046;-72
2023/07/19 11:52:56;;;;;;;0.00;0.00;;;25.10;97.10;;;;;;4997780;28;20428;-72
2023/07/19 11:55:22;;;;;;;0.10;0.03;;;25.70;86.00;;;;;;5004636;28;20049;-72
2023/07/19 11:57:51;;;;;;;0.20;0.20;;;26.10;65.00;;;;;;5004777;28;20041;-72
2023/07/19 12:00:18;;;;;;;0.03;0.03;;;25.80;70.00;;;;;;5004057;28;20050;-72
2023/07/19 12:02:45;;;;;;;0.00;0.00;;;25.20;20.00;;;;;;5004914;28;20069;-72
2023/07/19 12:05:15;;;;;;;0.00;0.00;;;24.70;19.30;;;;;;5004807;28;20038;-72
2023/07/19 12:07:41;;;;;;;0.00;0.00;;;24.90;18.20;;;;;;5004650;28;20038;-72
2023/07/19 12:10:07;;;;;;;0.00;0.00;;;25.80;44.60;;;;;;5004219;28;20385;-72
2023/07/19 12:12:34;;;;;;;0.30;0.22;;;26.70;80.30;;;;;;5004447;28;20440;-72
2023/07/19 12:15:00;;;;;;;0.57;0.35;;;27.50;84.60;;;;;;5004207;28;20053;-72
2023/07/19 12:17:26;;;;;;;0.00;0.00;;;27.90;58.20;;;;;;5004434;28;20061;-72
2023/07/19 12:19:53;;;;;;;0.00;0.00;;;27.00;1.00;;;;;;5003033;28;20038;-71
2023/07/19 12:22:19;;;;;;;0.10;0.10;;;27.30;21.30;;;;;;5004142;28;20045;-72
2023/07/19 12:24:44;;;;;;;0.40;0.28;;;27.10;1.00;;;;;;5003126;28;20396;-72
2023/07/19 12:27:10;;;;;;;2.72;0.38;;;27.00;1.00;;;;;;5005200;28;20495;-72
2023/07/19 12:29:36;;;;;;;0.00;0.00;;;26.70;1.00;;;;;;5002974;28;20038;-72
2023/07/19 12:32:05;;;;;;;0.00;0.00;;;26.20;1.00;;;;;;5002915;28;20038;-72
2023/07/19 12:34:30;;;;;;;1.35;0.15;;;25.40;1.00;;;;;;5002876;28;20421;-72
2023/07/19 12:36:56;;;;;;;0.00;0.00;;;24.70;1.00;;;;;;5003541;28;20124;-72
2023/07/19 12:39:23;;;;;;;0.05;0.03;;;24.30;1.00;;;;;;5003201;28;20045;-71
2023/07/19 12:41:49;;;;;;;0.00;0.00;;;23.70;1.00;;;;;;5003570;28;20099;-72
2023/07/19 12:44:15;;;;;;;0.00;0.00;;;23.70;1.00;;;;;;5003352;28;20535;-72